createdAt,value
2023-05-06T00:00:33.222Z,283.00
2023-05-06T00:01:33.189Z,279.00
2023-05-06T00:02:33.313Z,274.00
2023-05-06T00:03:33.397Z,273.00
2023-05-06T00:04:33.272Z,273.00
2023-05-06T00:05:33.143Z,275.00
2023-05-06T00:06:33.136Z,290.00
2023-05-06T00:07:33.135Z,297.00
2023-05-06T00:08:33.128Z,297.00
2023-05-06T00:09:33.121Z,294.00
2023-05-06T00:10:33.067Z,293.00
2023-05-06T00:11:33.133Z,292.00
2023-05-06T00:12:33.042Z,289.00
2023-05-06T00:13:33.030Z,291.00
2023-05-06T00:14:33.061Z,288.00
2023-05-06T00:15:32.999Z,284.00
2023-05-06T00:16:33.093Z,282.00
2023-05-06T00:17:33.015Z,284.00
2023-05-06T00:18:32.957Z,280.00
2023-05-06T00:19:32.969Z,279.00
2023-05-06T00:20:32.970Z,277.00
2023-05-06T00:21:32.941Z,269.00
2023-05-06T00:22:32.924Z,265.00
2023-05-06T00:23:32.899Z,268.00
2023-05-06T00:24:32.903Z,272.00
2023-05-06T00:25:32.881Z,280.00
2023-05-06T00:26:32.863Z,276.00
2023-05-06T00:27:32.863Z,295.00
2023-05-06T00:28:32.833Z,295.00
2023-05-06T00:29:32.818Z,298.00
2023-05-06T00:30:32.816Z,293.00
2023-05-06T00:31:32.877Z,286.00
2023-05-06T00:32:32.825Z,284.00
2023-05-06T00:33:32.760Z,281.00
2023-05-06T00:34:32.750Z,278.00
2023-05-06T00:35:32.759Z,268.00
2023-05-06T00:36:32.742Z,266.00
2023-05-06T00:37:32.728Z,254.00
2023-05-06T00:38:32.709Z,262.00
2023-05-06T00:39:32.712Z,268.00
2023-05-06T00:40:32.705Z,279.00
2023-05-06T00:41:32.663Z,287.00
2023-05-06T00:42:32.663Z,289.00
2023-05-06T00:43:32.656Z,300.00
2023-05-06T00:44:32.627Z,306.00
2023-05-06T00:45:32.671Z,307.00
2023-05-06T00:46:32.590Z,312.00
2023-05-06T00:47:32.652Z,327.00
2023-05-06T00:48:32.609Z,322.00
2023-05-06T00:49:32.580Z,307.00
2023-05-06T00:50:32.570Z,325.00
2023-05-06T00:51:32.549Z,312.00
2023-05-06T00:52:32.533Z,319.00
2023-05-06T00:53:32.544Z,306.00
2023-05-06T00:54:32.507Z,310.00
2023-05-06T00:55:32.498Z,307.00
2023-05-06T00:56:32.478Z,303.00
2023-05-06T00:57:32.482Z,306.00
2023-05-06T00:58:32.453Z,303.00
2023-05-06T00:59:32.423Z,304.00
2023-05-06T01:00:32.427Z,316.00
2023-05-06T01:01:32.419Z,311.00
2023-05-06T01:02:45.792Z,307.00
2023-05-06T01:03:32.467Z,299.00
2023-05-06T01:04:32.440Z,294.00
2023-05-06T01:05:32.344Z,298.00
2023-05-06T01:06:32.350Z,297.00
2023-05-06T01:07:32.338Z,293.00
2023-05-06T01:08:32.313Z,293.00
2023-05-06T01:09:32.331Z,289.00
2023-05-06T01:10:32.269Z,290.00
2023-05-06T01:11:32.281Z,282.00
2023-05-06T01:12:32.327Z,287.00
2023-05-06T01:13:32.256Z,287.00
2023-05-06T01:14:32.246Z,282.00
2023-05-06T01:15:32.235Z,279.00
2023-05-06T01:16:32.296Z,287.00
2023-05-06T01:17:32.217Z,288.00
2023-05-06T01:18:32.193Z,294.00
2023-05-06T01:19:32.177Z,293.00
2023-05-06T01:20:32.164Z,288.00
2023-05-06T01:21:32.176Z,292.00
2023-05-06T01:22:32.137Z,298.00
2023-05-06T01:23:32.155Z,292.00
2023-05-06T01:24:32.107Z,290.00
2023-05-06T01:25:32.103Z,289.00
2023-05-06T01:26:32.088Z,295.00
2023-05-06T01:27:32.150Z,302.00
2023-05-06T01:28:32.050Z,310.00
2023-05-06T01:29:32.049Z,311.00
2023-05-06T01:30:32.044Z,310.00
2023-05-06T01:31:32.124Z,304.00
2023-05-06T01:32:32.024Z,304.00
2023-05-06T01:33:32.004Z,301.00
2023-05-06T01:34:31.956Z,302.00
2023-05-06T01:35:31.977Z,311.00
2023-05-06T01:36:31.960Z,312.00
2023-05-06T01:37:31.946Z,310.00
2023-05-06T01:38:31.917Z,297.00
2023-05-06T01:39:31.906Z,296.00
2023-05-06T01:40:31.888Z,295.00
2023-05-06T01:41:31.903Z,297.00
2023-05-06T01:42:31.863Z,299.00
2023-05-06T01:43:31.890Z,298.00
2023-05-06T01:44:31.832Z,310.00
2023-05-06T01:45:31.820Z,311.00
2023-05-06T01:46:31.867Z,313.00
2023-05-06T01:47:31.838Z,316.00
2023-05-06T01:48:31.782Z,315.00
2023-05-06T01:49:31.805Z,314.00
2023-05-06T01:50:31.759Z,320.00
2023-05-06T01:51:31.740Z,315.00
2023-05-06T01:52:31.732Z,315.00
2023-05-06T01:53:31.749Z,308.00
2023-05-06T01:54:31.698Z,313.00
2023-05-06T01:55:31.716Z,321.00
2023-05-06T01:56:31.728Z,315.00
2023-05-06T01:57:31.673Z,309.00
2023-05-06T01:58:31.686Z,309.00
2023-05-06T01:59:31.663Z,307.00
2023-05-06T02:00:31.646Z,305.00
2023-05-06T02:01:31.644Z,302.00
2023-05-06T02:02:31.677Z,300.00
2023-05-06T02:03:31.653Z,298.00
2023-05-06T02:04:31.585Z,294.00
2023-05-06T02:05:31.568Z,288.00
2023-05-06T02:06:31.558Z,288.00
2023-05-06T02:07:31.551Z,288.00
2023-05-06T02:08:31.540Z,290.00
2023-05-06T02:09:31.531Z,279.00
2023-05-06T02:10:31.531Z,275.00
2023-05-06T02:11:31.477Z,271.00
2023-05-06T02:12:31.508Z,272.00
2023-05-06T02:13:31.451Z,270.00
2023-05-06T02:14:31.435Z,272.00
2023-05-06T02:15:31.454Z,270.00
2023-05-06T02:16:31.474Z,271.00
2023-05-06T02:17:31.428Z,274.00
2023-05-06T02:18:31.396Z,271.00
2023-05-06T02:19:31.369Z,276.00
2023-05-06T02:20:31.373Z,280.00
2023-05-06T02:21:31.362Z,280.00
2023-05-06T02:22:31.381Z,281.00
2023-05-06T02:23:31.373Z,283.00
2023-05-06T02:24:31.301Z,282.00
2023-05-06T02:25:31.322Z,281.00
2023-05-06T02:26:31.525Z,286.00
2023-05-06T02:27:31.282Z,302.00
2023-05-06T02:28:31.242Z,307.00
2023-05-06T02:29:31.283Z,309.00
2023-05-06T02:30:31.244Z,314.00
2023-05-06T02:31:31.287Z,318.00
2023-05-06T02:32:31.231Z,319.00
2023-05-06T02:33:31.217Z,322.00
2023-05-06T02:34:31.164Z,313.00
2023-05-06T02:35:31.173Z,318.00
2023-05-06T02:36:31.156Z,312.00
2023-05-06T02:37:31.152Z,315.00
2023-05-06T02:38:31.155Z,315.00
2023-05-06T02:39:31.119Z,315.00
2023-05-06T02:40:31.096Z,319.00
2023-05-06T02:41:31.127Z,322.00
2023-05-06T02:42:31.110Z,318.00
2023-05-06T02:43:31.081Z,322.00
2023-05-06T02:44:31.026Z,312.00
2023-05-06T02:45:31.086Z,295.00
2023-05-06T02:46:31.022Z,272.00
2023-05-06T02:47:31.104Z,290.00
2023-05-06T02:48:31.007Z,303.00
2023-05-06T02:49:30.983Z,318.00
2023-05-06T02:50:30.975Z,318.00
2023-05-06T02:51:30.978Z,318.00
2023-05-06T02:52:30.948Z,310.00
2023-05-06T02:53:30.946Z,299.00
2023-05-06T02:54:30.941Z,308.00
2023-05-06T02:55:30.940Z,313.00
2023-05-06T02:56:30.897Z,321.00
2023-05-06T02:57:30.881Z,324.00
2023-05-06T02:58:30.856Z,319.00
2023-05-06T02:59:30.842Z,314.00
2023-05-06T03:00:30.836Z,312.00
2023-05-06T03:01:30.863Z,317.00
2023-05-06T03:02:30.839Z,323.00
2023-05-06T03:03:30.793Z,327.00
2023-05-06T03:04:30.880Z,327.00
2023-05-06T03:05:30.788Z,330.00
2023-05-06T03:06:30.736Z,325.00
2023-05-06T03:07:30.767Z,321.00
2023-05-06T03:08:30.734Z,312.00
2023-05-06T03:09:30.714Z,318.00
2023-05-06T03:10:30.710Z,323.00
2023-05-06T03:11:30.684Z,314.00
2023-05-06T03:12:30.666Z,273.00
2023-05-06T03:13:30.706Z,268.00
2023-05-06T03:14:30.637Z,302.00
2023-05-06T03:15:30.675Z,304.00
2023-05-06T03:16:30.651Z,320.00
2023-05-06T03:17:30.702Z,314.00
2023-05-06T03:18:30.609Z,314.00
2023-05-06T03:19:30.596Z,321.00
2023-05-06T03:20:30.591Z,316.00
2023-05-06T03:21:30.623Z,322.00
2023-05-06T03:22:30.537Z,320.00
2023-05-06T03:23:30.532Z,321.00
2023-05-06T03:24:30.515Z,322.00
2023-05-06T03:25:30.533Z,329.00
2023-05-06T03:26:30.489Z,316.00
2023-05-06T03:27:30.470Z,298.00
2023-05-06T03:28:30.454Z,291.00
2023-05-06T03:29:30.447Z,290.00
2023-05-06T03:30:30.486Z,312.00
2023-05-06T03:31:30.530Z,322.00
2023-05-06T03:32:30.444Z,319.00
2023-05-06T03:33:30.462Z,327.00
2023-05-06T03:34:30.368Z,317.00
2023-05-06T03:35:30.397Z,304.00
2023-05-06T03:36:30.379Z,304.00
2023-05-06T03:37:30.373Z,318.00
2023-05-06T03:38:30.346Z,320.00
2023-05-06T03:39:30.318Z,314.00
2023-05-06T03:40:30.326Z,297.00
2023-05-06T03:41:30.318Z,298.00
2023-05-06T03:42:30.301Z,312.00
2023-05-06T03:43:30.284Z,310.00
2023-05-06T03:44:30.390Z,308.00
2023-05-06T03:45:30.272Z,328.00
2023-05-06T03:46:30.413Z,332.00
2023-05-06T03:47:30.371Z,330.00
2023-05-06T03:48:30.220Z,331.00
2023-05-06T03:49:30.248Z,322.00
2023-05-06T03:50:30.165Z,323.00
2023-05-06T03:51:30.161Z,326.00
2023-05-06T03:52:30.141Z,317.00
2023-05-06T03:53:30.154Z,309.00
2023-05-06T03:54:30.125Z,309.00
2023-05-06T03:55:30.141Z,308.00
2023-05-06T03:56:30.124Z,307.00
2023-05-06T03:57:30.117Z,315.00
2023-05-06T03:58:30.058Z,318.00
2023-05-06T03:59:30.139Z,319.00
2023-05-06T04:00:30.051Z,320.00
2023-05-06T04:01:30.074Z,315.00
2023-05-06T04:02:30.217Z,321.00
2023-05-06T04:03:30.063Z,319.00
2023-05-06T04:04:30.003Z,312.00
2023-05-06T04:05:29.982Z,311.00
2023-05-06T04:06:29.955Z,301.00
2023-05-06T04:07:29.944Z,304.00
2023-05-06T04:08:29.968Z,305.00
2023-05-06T04:09:29.925Z,300.00
2023-05-06T04:10:29.943Z,302.00
2023-05-06T04:11:30.026Z,316.00
2023-05-06T04:12:29.916Z,322.00
2023-05-06T04:13:29.881Z,318.00
2023-05-06T04:14:29.873Z,313.00
2023-05-06T04:15:29.886Z,316.00
2023-05-06T04:16:29.852Z,321.00
2023-05-06T04:17:29.877Z,317.00
2023-05-06T04:18:29.809Z,330.00
2023-05-06T04:19:29.785Z,330.00
2023-05-06T04:20:29.789Z,329.00
2023-05-06T04:21:29.785Z,314.00
2023-05-06T04:22:29.749Z,317.00
2023-05-06T04:23:29.766Z,305.00
2023-05-06T04:24:29.727Z,307.00
2023-05-06T04:25:29.726Z,304.00
2023-05-06T04:26:29.715Z,288.00
2023-05-06T04:27:29.689Z,302.00
2023-05-06T04:28:29.702Z,286.00
2023-05-06T04:29:29.660Z,280.00
2023-05-06T04:30:29.676Z,279.00
2023-05-06T04:31:29.742Z,272.00
2023-05-06T04:32:29.787Z,269.00
2023-05-06T04:33:29.624Z,273.00
2023-05-06T04:34:29.595Z,268.00
2023-05-06T04:35:29.578Z,269.00
2023-05-06T04:36:29.620Z,270.00
2023-05-06T04:37:29.589Z,271.00
2023-05-06T04:38:29.598Z,274.00
2023-05-06T04:39:29.547Z,271.00
2023-05-06T04:40:29.516Z,273.00
2023-05-06T04:41:29.535Z,277.00
2023-05-06T04:42:29.522Z,273.00
2023-05-06T04:43:29.522Z,272.00
2023-05-06T04:44:29.499Z,275.00
2023-05-06T04:45:29.474Z,275.00
2023-05-06T04:46:29.438Z,276.00
2023-05-06T04:47:29.460Z,275.00
2023-05-06T04:48:29.460Z,274.00
2023-05-06T04:49:29.427Z,272.00
2023-05-06T04:50:29.422Z,270.00
2023-05-06T04:51:29.408Z,267.00
2023-05-06T04:52:29.376Z,265.00
2023-05-06T04:53:29.370Z,262.00
2023-05-06T04:54:29.366Z,262.00
2023-05-06T04:55:29.321Z,263.00
2023-05-06T04:56:29.326Z,262.00
2023-05-06T04:57:29.299Z,261.00
2023-05-06T04:58:29.313Z,258.00
2023-05-06T04:59:29.303Z,260.00
2023-05-06T05:00:29.271Z,259.00
2023-05-06T05:01:29.331Z,256.00
2023-05-06T05:02:29.372Z,260.00
2023-05-06T05:03:29.319Z,262.00
2023-05-06T05:04:29.216Z,265.00
2023-05-06T05:05:29.228Z,271.00
2023-05-06T05:06:29.195Z,271.00
2023-05-06T05:07:29.181Z,272.00
2023-05-06T05:08:29.161Z,268.00
2023-05-06T05:09:29.169Z,264.00
2023-05-06T05:10:29.175Z,264.00
2023-05-06T05:11:29.104Z,263.00
2023-05-06T05:12:29.109Z,263.00
2023-05-06T05:13:29.087Z,259.00
2023-05-06T05:14:29.096Z,261.00
2023-05-06T05:15:29.104Z,261.00
2023-05-06T05:16:29.134Z,263.00
2023-05-06T05:17:29.099Z,272.00
2023-05-06T05:18:29.065Z,284.00
2023-05-06T05:19:29.007Z,285.00
2023-05-06T05:20:29.008Z,291.00
2023-05-06T05:21:28.975Z,299.00
2023-05-06T05:22:29.001Z,295.00
2023-05-06T05:23:28.966Z,320.00
2023-05-06T05:24:28.975Z,338.00
2023-05-06T05:25:28.946Z,331.00
2023-05-06T05:26:28.939Z,321.00
2023-05-06T05:27:28.901Z,325.00
2023-05-06T05:28:28.900Z,324.00
2023-05-06T05:29:28.871Z,312.00
2023-05-06T05:30:28.916Z,286.00
2023-05-06T05:31:28.940Z,284.00
2023-05-06T05:32:28.861Z,281.00
2023-05-06T05:33:28.881Z,276.00
2023-05-06T05:34:28.816Z,273.00
2023-05-06T05:35:28.795Z,272.00
2023-05-06T05:36:28.805Z,270.00
2023-05-06T05:37:28.760Z,265.00
2023-05-06T05:38:28.767Z,263.00
2023-05-06T05:39:28.740Z,262.00
2023-05-06T05:40:28.752Z,265.00
2023-05-06T05:41:28.751Z,266.00
2023-05-06T05:42:28.722Z,267.00
2023-05-06T05:43:28.693Z,270.00
2023-05-06T05:44:28.697Z,269.00
2023-05-06T05:45:28.667Z,268.00
2023-05-06T05:46:28.747Z,265.00
2023-05-06T05:47:28.699Z,263.00
2023-05-06T05:48:28.652Z,263.00
2023-05-06T05:49:28.599Z,263.00
2023-05-06T05:50:28.617Z,263.00
2023-05-06T05:51:28.609Z,266.00
2023-05-06T05:52:28.703Z,271.00
2023-05-06T05:53:28.654Z,277.00
2023-05-06T05:54:28.623Z,282.00
2023-05-06T05:55:28.542Z,311.00
2023-05-06T05:56:28.541Z,325.00
2023-05-06T05:57:28.511Z,321.00
2023-05-06T05:58:28.506Z,324.00
2023-05-06T05:59:28.499Z,319.00
2023-05-06T06:00:28.505Z,320.00
2023-05-06T06:01:28.574Z,314.00
2023-05-06T06:02:28.545Z,312.00
2023-05-06T06:03:28.538Z,306.00
2023-05-06T06:04:28.487Z,289.00
2023-05-06T06:05:28.416Z,299.00
2023-05-06T06:06:28.391Z,315.00
2023-05-06T06:07:28.380Z,307.00
2023-05-06T06:08:28.408Z,287.00
2023-05-06T06:09:28.395Z,289.00
2023-05-06T06:10:28.372Z,293.00
2023-05-06T06:11:28.327Z,289.00
2023-05-06T06:12:28.488Z,298.00
2023-05-06T06:13:28.942Z,301.00
2023-05-06T06:14:28.316Z,304.00
2023-05-06T06:15:28.300Z,299.00
2023-05-06T06:16:28.425Z,272.00
2023-05-06T06:17:28.272Z,271.00
2023-05-06T06:18:28.216Z,271.00
2023-05-06T06:19:28.244Z,276.00
2023-05-06T06:20:28.194Z,273.00
2023-05-06T06:21:28.185Z,268.00
2023-05-06T06:22:28.185Z,269.00
2023-05-06T06:23:28.195Z,268.00
2023-05-06T06:24:28.187Z,265.00
2023-05-06T06:25:28.166Z,267.00
2023-05-06T06:26:28.151Z,263.00
2023-05-06T06:27:28.111Z,267.00
2023-05-06T06:28:28.092Z,268.00
2023-05-06T06:29:28.153Z,271.00
2023-05-06T06:30:28.110Z,269.00
2023-05-06T06:31:28.147Z,268.00
2023-05-06T06:32:28.067Z,263.00
2023-05-06T06:33:28.027Z,268.00
2023-05-06T06:34:28.009Z,277.00
2023-05-06T06:35:28.066Z,277.00
2023-05-06T06:36:28.019Z,275.00
2023-05-06T06:37:27.993Z,272.00
2023-05-06T06:38:27.988Z,268.00
2023-05-06T06:39:28.024Z,279.00
2023-05-06T06:40:27.966Z,293.00
2023-05-06T06:41:27.949Z,302.00
2023-05-06T06:42:27.923Z,309.00
2023-05-06T06:43:27.922Z,309.00
2023-05-06T06:44:27.888Z,302.00
2023-05-06T06:45:27.877Z,295.00
2023-05-06T06:46:27.892Z,297.00
2023-05-06T06:47:27.927Z,305.00
2023-05-06T06:48:27.853Z,310.00
2023-05-06T06:49:27.837Z,302.00
2023-05-06T06:50:27.989Z,294.00
2023-05-06T06:51:28.055Z,298.00
2023-05-06T06:52:27.842Z,307.00
2023-05-06T06:53:28.164Z,302.00
2023-05-06T06:54:27.901Z,295.00
2023-05-06T06:55:27.740Z,296.00
2023-05-06T06:56:27.995Z,306.00
2023-05-06T06:57:27.983Z,297.00
2023-05-06T06:58:27.791Z,289.00
2023-05-06T06:59:27.951Z,305.00
2023-05-06T07:00:27.664Z,309.00
2023-05-06T07:01:27.747Z,316.00
2023-05-06T07:02:27.739Z,315.00
2023-05-06T07:03:27.646Z,296.00
2023-05-06T07:04:27.749Z,274.00
2023-05-06T07:05:27.645Z,288.00
2023-05-06T07:06:27.637Z,322.00
2023-05-06T07:07:27.593Z,315.00
2023-05-06T07:08:27.582Z,309.00
2023-05-06T07:09:27.569Z,311.00
2023-05-06T07:10:27.572Z,304.00
2023-05-06T07:11:27.514Z,291.00
2023-05-06T07:12:27.513Z,290.00
2023-05-06T07:13:27.510Z,289.00
2023-05-06T07:14:27.506Z,284.00
2023-05-06T07:15:27.505Z,275.00
2023-05-06T07:16:27.527Z,269.00
2023-05-06T07:17:27.476Z,261.00
2023-05-06T07:18:27.436Z,261.00
2023-05-06T07:19:27.405Z,261.00
2023-05-06T07:20:27.480Z,260.00
2023-05-06T07:21:27.397Z,259.00
2023-05-06T07:22:27.405Z,259.00
2023-05-06T07:23:27.492Z,258.00
2023-05-06T07:24:27.360Z,259.00
2023-05-06T07:25:27.367Z,255.00
2023-05-06T07:26:27.354Z,256.00
2023-05-06T07:27:27.339Z,258.00
2023-05-06T07:28:27.351Z,255.00
2023-05-06T07:29:27.299Z,253.00
2023-05-06T07:30:27.363Z,251.00
2023-05-06T07:31:27.272Z,260.00
2023-05-06T07:32:27.273Z,263.00
2023-05-06T07:33:27.236Z,264.00
2023-05-06T07:34:27.231Z,266.00
2023-05-06T07:35:27.220Z,266.00
2023-05-06T07:36:27.244Z,262.00
2023-05-06T07:37:27.180Z,255.00
2023-05-06T07:38:27.211Z,249.00
2023-05-06T07:39:27.143Z,253.00
2023-05-06T07:40:27.128Z,257.00
2023-05-06T07:41:27.143Z,258.00
2023-05-06T07:42:27.125Z,259.00
2023-05-06T07:43:27.121Z,261.00
2023-05-06T07:44:27.096Z,272.00
2023-05-06T07:45:27.105Z,278.00
2023-05-06T07:46:27.175Z,284.00
2023-05-06T07:47:27.171Z,287.00
2023-05-06T07:48:27.117Z,283.00
2023-05-06T07:49:27.032Z,282.00
2023-05-06T07:50:27.002Z,300.00
2023-05-06T07:51:26.987Z,298.00
2023-05-06T07:52:26.995Z,278.00
2023-05-06T07:53:26.992Z,283.00
2023-05-06T07:54:26.963Z,278.00
2023-05-06T07:55:26.955Z,306.00
2023-05-06T07:56:26.949Z,316.00
2023-05-06T07:57:26.929Z,306.00
2023-05-06T07:58:26.994Z,297.00
2023-05-06T07:59:26.918Z,298.00
2023-05-06T08:00:26.883Z,297.00
2023-05-06T08:01:26.866Z,289.00
2023-05-06T08:02:26.988Z,285.00
2023-05-06T08:03:27.024Z,277.00
2023-05-06T08:04:26.899Z,276.00
2023-05-06T08:05:26.812Z,273.00
2023-05-06T08:06:26.798Z,272.00
2023-05-06T08:07:26.796Z,267.00
2023-05-06T08:08:26.798Z,276.00
2023-05-06T08:09:26.767Z,268.00
2023-05-06T08:10:26.770Z,264.00
2023-05-06T08:11:26.755Z,267.00
2023-05-06T08:12:26.724Z,274.00
2023-05-06T08:13:26.739Z,298.00
2023-05-06T08:14:26.727Z,317.00
2023-05-06T08:15:26.707Z,326.00
2023-05-06T08:16:26.749Z,311.00
2023-05-06T08:17:26.692Z,309.00
2023-05-06T08:18:26.748Z,317.00
2023-05-06T08:19:26.689Z,324.00
2023-05-06T08:20:26.612Z,321.00
2023-05-06T08:21:26.596Z,325.00
2023-05-06T08:22:26.598Z,316.00
2023-05-06T08:23:26.607Z,305.00
2023-05-06T08:24:26.563Z,293.00
2023-05-06T08:25:26.541Z,270.00
2023-05-06T08:26:26.573Z,266.00
2023-05-06T08:27:26.549Z,264.00
2023-05-06T08:28:26.546Z,266.00
2023-05-06T08:29:26.526Z,264.00
2023-05-06T08:30:26.466Z,266.00
2023-05-06T08:31:26.486Z,295.00
2023-05-06T08:32:26.633Z,286.00
2023-05-06T08:33:26.502Z,281.00
2023-05-06T08:34:26.436Z,273.00
2023-05-06T08:35:26.411Z,272.00
2023-05-06T08:36:26.401Z,268.00
2023-05-06T08:37:26.408Z,266.00
2023-05-06T08:38:26.394Z,265.00
2023-05-06T08:39:26.417Z,266.00
2023-05-06T08:40:26.362Z,262.00
2023-05-06T08:41:26.347Z,263.00
2023-05-06T08:42:26.320Z,268.00
2023-05-06T08:43:26.311Z,278.00
2023-05-06T08:44:26.312Z,279.00
2023-05-06T08:45:28.045Z,282.00
2023-05-06T08:46:26.283Z,279.00
2023-05-06T08:47:26.307Z,272.00
2023-05-06T08:48:26.247Z,268.00
2023-05-06T08:49:26.253Z,262.00
2023-05-06T08:50:26.233Z,260.00
2023-05-06T08:51:26.230Z,263.00
2023-05-06T08:52:26.225Z,263.00
2023-05-06T08:53:26.213Z,258.00
2023-05-06T08:54:26.191Z,257.00
2023-05-06T08:55:26.162Z,256.00
2023-05-06T08:56:26.141Z,256.00
2023-05-06T08:57:26.150Z,255.00
2023-05-06T08:58:26.121Z,288.00
2023-05-06T08:59:26.144Z,300.00
2023-05-06T09:00:26.103Z,299.00
2023-05-06T09:01:26.094Z,283.00
2023-05-06T09:02:26.233Z,266.00
2023-05-06T09:03:26.106Z,266.00
2023-05-06T09:04:26.117Z,263.00
2023-05-06T09:05:26.071Z,265.00
2023-05-06T09:06:25.991Z,264.00
2023-05-06T09:07:26.021Z,264.00
2023-05-06T09:08:26.008Z,262.00
2023-05-06T09:09:26.099Z,259.00
2023-05-06T09:10:25.971Z,261.00
2023-05-06T09:11:25.947Z,276.00
2023-05-06T09:12:25.999Z,280.00
2023-05-06T09:13:25.922Z,272.00
2023-05-06T09:14:25.884Z,270.00
2023-05-06T09:15:25.923Z,265.00
2023-05-06T09:16:26.005Z,265.00
2023-05-06T09:17:25.903Z,266.00
2023-05-06T09:18:25.898Z,261.00
2023-05-06T09:19:25.904Z,264.00
2023-05-06T09:20:26.094Z,261.00
2023-05-06T09:21:25.863Z,253.00
2023-05-06T09:22:25.785Z,256.00
2023-05-06T09:23:25.889Z,257.00
2023-05-06T09:24:25.781Z,259.00
2023-05-06T09:25:25.751Z,260.00
2023-05-06T09:26:25.735Z,260.00
2023-05-06T09:27:25.804Z,257.00
2023-05-06T09:28:25.782Z,257.00
2023-05-06T09:29:25.701Z,257.00
2023-05-06T09:30:25.681Z,257.00
2023-05-06T09:31:25.810Z,258.00
2023-05-06T09:32:25.743Z,256.00
2023-05-06T09:33:25.685Z,252.00
2023-05-06T09:34:25.649Z,252.00
2023-05-06T09:35:25.637Z,253.00
2023-05-06T09:36:25.615Z,254.00
2023-05-06T09:37:25.631Z,256.00
2023-05-06T09:38:25.586Z,252.00
2023-05-06T09:39:25.573Z,253.00
2023-05-06T09:40:25.559Z,250.00
2023-05-06T09:41:25.707Z,249.00
2023-05-06T09:42:25.573Z,252.00
2023-05-06T09:43:25.535Z,250.00
2023-05-06T09:44:25.491Z,249.00
2023-05-06T09:45:25.501Z,251.00
2023-05-06T09:46:25.555Z,256.00
2023-05-06T09:47:25.539Z,258.00
2023-05-06T09:48:25.500Z,255.00
2023-05-06T09:49:25.447Z,253.00
2023-05-06T09:50:25.433Z,250.00
2023-05-06T09:51:25.409Z,252.00
2023-05-06T09:52:25.419Z,258.00
2023-05-06T09:53:25.512Z,260.00
2023-05-06T09:54:25.374Z,260.00
2023-05-06T09:55:25.433Z,261.00
2023-05-06T09:56:25.381Z,259.00
2023-05-06T09:57:25.343Z,256.00
2023-05-06T09:58:25.336Z,256.00
2023-05-06T09:59:25.349Z,254.00
2023-05-06T10:00:25.287Z,256.00
2023-05-06T10:01:36.228Z,253.00
2023-05-06T10:02:25.369Z,254.00
2023-05-06T10:03:25.439Z,256.00
2023-05-06T10:04:26.436Z,256.00
2023-05-06T10:05:25.568Z,258.00
2023-05-06T10:06:25.302Z,254.00
2023-05-06T10:07:25.219Z,251.00
2023-05-06T10:08:25.361Z,250.00
2023-05-06T10:09:25.556Z,251.00
2023-05-06T10:10:25.648Z,248.00
2023-05-06T10:11:25.282Z,254.00
2023-05-06T10:12:25.145Z,258.00
2023-05-06T10:13:25.194Z,249.00
2023-05-06T10:14:25.481Z,252.00
2023-05-06T10:15:25.391Z,254.00
2023-05-06T10:16:25.298Z,252.00
2023-05-06T10:17:25.251Z,251.00
2023-05-06T10:18:25.283Z,252.00
2023-05-06T10:19:25.713Z,250.00
2023-05-06T10:20:25.056Z,245.00
2023-05-06T10:21:25.062Z,245.00
2023-05-06T10:22:25.162Z,241.00
2023-05-06T10:23:25.001Z,240.00
2023-05-06T10:24:25.305Z,234.00
2023-05-06T10:25:25.051Z,238.00
2023-05-06T10:26:25.289Z,241.00
2023-05-06T10:27:25.085Z,248.00
2023-05-06T10:28:30.400Z,251.00
2023-05-06T10:29:24.915Z,255.00
2023-05-06T10:30:24.894Z,252.00
2023-05-06T10:31:25.226Z,257.00
2023-05-06T10:32:25.046Z,253.00
2023-05-06T10:33:24.936Z,250.00
2023-05-06T10:34:24.849Z,247.00
2023-05-06T10:35:24.963Z,240.00
2023-05-06T10:36:24.898Z,241.00
2023-05-06T10:37:24.990Z,238.00
2023-05-06T10:38:24.953Z,232.00
2023-05-06T10:39:25.095Z,227.00
2023-05-06T10:40:24.783Z,222.00
2023-05-06T10:41:24.885Z,218.00
2023-05-06T10:42:24.755Z,220.00
2023-05-06T10:43:24.756Z,228.00
2023-05-06T10:44:25.007Z,227.00
2023-05-06T10:45:24.743Z,232.00
2023-05-06T10:46:24.781Z,239.00
2023-05-06T10:47:24.729Z,233.00
2023-05-06T10:48:24.712Z,232.00
2023-05-06T10:49:24.809Z,230.00
2023-05-06T10:50:24.896Z,230.00
2023-05-06T10:51:24.633Z,232.00
2023-05-06T10:52:24.620Z,230.00
2023-05-06T10:53:24.616Z,229.00
2023-05-06T10:54:24.583Z,230.00
2023-05-06T10:55:24.582Z,220.00
2023-05-06T10:56:24.559Z,223.00
2023-05-06T10:57:24.552Z,216.00
2023-05-06T10:58:24.545Z,216.00
2023-05-06T10:59:24.516Z,222.00
2023-05-06T11:00:24.505Z,218.00
2023-05-06T11:01:24.503Z,213.00
2023-05-06T11:02:24.541Z,214.00
2023-05-06T11:03:24.519Z,214.00
2023-05-06T11:04:24.466Z,210.00
2023-05-06T11:05:24.452Z,210.00
2023-05-06T11:06:24.461Z,204.00
2023-05-06T11:07:24.453Z,208.00
2023-05-06T11:08:24.411Z,210.00
2023-05-06T11:09:24.386Z,211.00
2023-05-06T11:10:24.359Z,213.00
2023-05-06T11:11:24.381Z,225.00
2023-05-06T11:12:24.329Z,227.00
2023-05-06T11:13:24.372Z,236.00
2023-05-06T11:14:24.313Z,243.00
2023-05-06T11:15:24.319Z,235.00
2023-05-06T11:16:24.341Z,239.00
2023-05-06T11:17:24.339Z,250.00
2023-05-06T11:18:24.255Z,250.00
2023-05-06T11:19:24.334Z,253.00
2023-05-06T11:20:24.263Z,254.00
2023-05-06T11:21:24.230Z,267.00
2023-05-06T11:22:24.218Z,269.00
2023-05-06T11:23:24.199Z,277.00
2023-05-06T11:24:24.229Z,271.00
2023-05-06T11:25:24.189Z,270.00
2023-05-06T11:26:24.188Z,269.00
2023-05-06T11:27:24.149Z,262.00
2023-05-06T11:28:24.134Z,259.00
2023-05-06T11:29:24.121Z,264.00
2023-05-06T11:30:24.141Z,260.00
2023-05-06T11:31:24.171Z,267.00
2023-05-06T11:32:24.098Z,274.00
2023-05-06T11:33:24.095Z,264.00
2023-05-06T11:34:24.073Z,265.00
2023-05-06T11:35:24.106Z,263.00
2023-05-06T11:36:24.247Z,276.00
2023-05-06T11:37:24.063Z,267.00
2023-05-06T11:38:24.037Z,267.00
2023-05-06T11:39:23.985Z,269.00
2023-05-06T11:40:23.981Z,266.00
2023-05-06T11:41:24.076Z,258.00
2023-05-06T11:42:23.935Z,258.00
2023-05-06T11:43:23.965Z,267.00
2023-05-06T11:44:23.951Z,275.00
2023-05-06T11:45:23.918Z,269.00
2023-05-06T11:46:23.960Z,260.00
2023-05-06T11:47:23.958Z,260.00
2023-05-06T11:48:23.900Z,273.00
2023-05-06T11:49:23.865Z,265.00
2023-05-06T11:50:23.861Z,262.00
2023-05-06T11:51:23.828Z,269.00
2023-05-06T11:52:23.825Z,267.00
2023-05-06T11:53:23.811Z,261.00
2023-05-06T11:54:23.831Z,259.00
2023-05-06T11:55:23.817Z,250.00
2023-05-06T11:56:23.777Z,250.00
2023-05-06T11:57:23.780Z,262.00
2023-05-06T11:58:23.765Z,256.00
2023-05-06T11:59:23.744Z,265.00
2023-05-06T12:00:23.702Z,268.00
2023-05-06T12:01:23.744Z,253.00
2023-05-06T12:02:23.738Z,258.00
2023-05-06T12:03:23.880Z,254.00
2023-05-06T12:04:23.693Z,254.00
2023-05-06T12:05:23.643Z,252.00
2023-05-06T12:06:24.634Z,265.00
2023-05-06T12:07:23.613Z,273.00
2023-05-06T12:08:27.228Z,260.00
2023-05-06T12:09:23.699Z,254.00
2023-05-06T12:10:23.567Z,245.00
2023-05-06T12:11:23.562Z,251.00
2023-05-06T12:12:23.564Z,254.00
2023-05-06T12:13:23.619Z,253.00
2023-05-06T12:14:23.550Z,244.00
2023-05-06T12:15:23.543Z,234.00
2023-05-06T12:16:23.571Z,238.00
2023-05-06T12:17:23.531Z,239.00
2023-05-06T12:18:23.490Z,235.00
2023-05-06T12:19:23.469Z,233.00
2023-05-06T12:20:23.443Z,236.00
2023-05-06T12:21:23.488Z,233.00
2023-05-06T12:22:23.413Z,232.00
2023-05-06T12:23:23.433Z,240.00
2023-05-06T12:24:23.394Z,238.00
2023-05-06T12:25:23.420Z,236.00
2023-05-06T12:26:23.351Z,228.00
2023-05-06T12:27:23.348Z,226.00
2023-05-06T12:28:23.351Z,222.00